Time;durP1;ratioP1;P1;durP2;ratioP2;P2;SDS_P1;SDS_P2;PMS_P1;PMS_P2;Temp;Humidity;BMP_temperature;BMP_pressure;BME280_temperature;BME280_humidity;BME280_pressure;Samples;Min_cycle;Max_cycle;Signal;HPM_P1;HPM_P2
2023/06/06 00:01:45;;;;;;;;;;;;;;;17.91;100.00;99269.97;4307034;33;35345;-95
2023/06/06 00:04:13;;;;;;;;;;;;;;;17.95;100.00;99276.81;4320233;33;34739;-95
2023/06/06 00:06:44;;;;;;;;;;;;;;;17.76;100.00;99278.47;4320331;33;34060;-95
2023/06/06 00:09:11;;;;;;;;;;;;;;;17.69;100.00;99277.00;4307105;33;33833;-95
2023/06/06 00:11:40;;;;;;;;;;;;;;;17.77;100.00;99282.81;4306717;33;35096;-95
2023/06/06 00:14:07;;;;;;;;;;;;;;;17.77;100.00;99274.91;4306955;33;35418;-91
2023/06/06 00:16:35;;;;;;;;;;;;;;;17.88;100.00;99283.25;4306943;33;33136;-95
2023/06/06 00:19:04;;;;;;;;;;;;;;;17.62;100.00;99284.31;4307066;33;33938;-95
2023/06/06 00:21:32;;;;;;;;;;;;;;;17.76;100.00;99275.84;4306754;33;35906;-95
2023/06/06 00:24:00;;;;;;;;;;;;;;;18.33;100.00;99278.72;4307097;33;34583;-95
2023/06/06 00:26:28;;;;;;;;;;;;;;;17.86;100.00;99274.56;4306871;33;33228;-96
2023/06/06 00:28:56;;;;;;;;;;;;;;;17.77;100.00;99265.25;4319827;33;33803;-95
2023/06/06 00:31:24;;;;;;;;;;;;;;;17.90;100.00;99275.31;4319790;33;34959;-95
2023/06/06 00:33:52;;;;;;;;;;;;;;;17.58;100.00;99270.41;4307018;33;34293;-95
2023/06/06 00:36:21;;;;;;;;;;;;;;;17.50;100.00;99272.47;4306905;33;33002;-96
2023/06/06 00:38:50;;;;;;;;;;;;;;;17.68;100.00;99264.75;4319983;33;34343;-96
2023/06/06 00:41:18;;;;;;;;;;;;;;;17.63;100.00;99268.44;4319949;33;35257;-95
2023/06/06 00:43:46;;;;;;;;;;;;;;;17.54;100.00;99268.81;4319872;33;35076;-94
2023/06/06 00:46:13;;;;;;;;;;;;;;;17.69;100.00;99266.47;4319966;33;33115;-95
2023/06/06 00:48:42;;;;;;;;;;;;;;;17.67;100.00;99265.69;4307053;33;34370;-95
2023/06/06 00:51:10;;;;;;;;;;;;;;;17.69;100.00;99256.78;4306795;33;36080;-95
2023/06/06 00:53:38;;;;;;;;;;;;;;;17.70;100.00;99247.09;4306700;33;35348;-95
2023/06/06 00:56:06;;;;;;;;;;;;;;;17.91;100.00;99248.03;4306635;33;33585;-92
2023/06/06 00:58:34;;;;;;;;;;;;;;;17.81;100.00;99244.91;4307067;33;34963;-95
2023/06/06 01:01:04;;;;;;;;;;;;;;;17.93;100.00;99243.53;4306975;33;34885;-96
2023/06/06 01:03:33;;;;;;;;;;;;;;;17.79;100.00;99252.00;4306954;33;34803;-96
2023/06/06 01:06:01;;;;;;;;;;;;;;;17.81;100.00;99251.00;4306710;33;33427;-95
2023/06/06 01:08:29;;;;;;;;;;;;;;;17.77;100.00;99256.47;4306821;33;33966;-95
2023/06/06 01:11:05;;;;;;;;;;;;;;;17.78;100.00;99251.12;4306635;33;35961;-93
2023/06/06 01:13:39;;;;;;;;;;;;;;;17.51;100.00;99253.16;4295322;33;33232;-96
2023/06/06 01:16:13;;;;;;;;;;;;;;;17.46;100.00;99257.72;4306869;33;33555;-94
2023/06/06 01:18:41;;;;;;;;;;;;;;;17.60;100.00;99263.28;4306780;33;34144;-95
2023/06/06 01:21:10;;;;;;;;;;;;;;;17.66;100.00;99250.78;4306640;33;36099;-92
2023/06/06 01:23:38;;;;;;;;;;;;;;;17.60;100.00;99246.66;4305941;33;34388;-95
2023/06/06 01:26:05;;;;;;;;;;;;;;;17.99;100.00;99252.03;4306801;33;33365;-91
2023/06/06 01:28:34;;;;;;;;;;;;;;;17.74;100.00;99248.72;4294819;33;34045;-95
2023/06/06 01:31:03;;;;;;;;;;;;;;;17.95;100.00;99242.56;4306493;33;35164;-94
2023/06/06 01:33:44;;;;;;;;;;;;;;;18.31;98.21;99244.53;4319547;33;34776;-96
2023/06/06 01:36:15;;;;;;;;;;;;;;;18.40;97.92;99239.78;4306782;33;33061;-92
2023/06/06 01:39:03;;;;;;;;;;;;;;;18.09;100.00;99233.19;4319696;33;34343;-94
2023/06/06 01:41:31;;;;;;;;;;;;;;;18.29;99.40;99238.47;4306744;33;35315;-95
2023/06/06 01:43:58;;;;;;;;;;;;;;;17.87;100.00;99247.28;4306758;33;34860;-95
2023/06/06 01:46:26;;;;;;;;;;;;;;;17.97;100.00;99248.63;4319568;33;33287;-93
2023/06/06 01:48:55;;;;;;;;;;;;;;;18.10;100.00;99250.72;4319356;33;35014;-95
2023/06/06 01:51:25;;;;;;;;;;;;;;;17.99;99.70;99243.28;4319356;33;35183;-95
2023/06/06 01:53:53;;;;;;;;;;;;;;;18.10;99.45;99243.69;4306250;33;35369;-96
2023/06/06 01:56:23;;;;;;;;;;;;;;;18.10;100.00;99242.81;4306412;33;34313;-96
2023/06/06 01:58:51;;;;;;;;;;;;;;;17.92;100.00;99247.97;4306443;33;33988;-92
2023/06/06 02:01:18;;;;;;;;;;;;;;;18.07;100.00;99240.31;4306261;33;35194;-95
2023/06/06 02:03:46;;;;;;;;;;;;;;;18.16;100.00;99234.66;4319580;33;35473;-93
2023/06/06 02:06:14;;;;;;;;;;;;;;;18.19;100.00;99234.50;4306437;33;33148;-95
2023/06/06 02:08:42;;;;;;;;;;;;;;;18.55;98.08;99236.47;4306414;33;34197;-95
2023/06/06 02:11:10;;;;;;;;;;;;;;;18.48;96.47;99241.16;4306544;33;35449;-95
2023/06/06 02:13:38;;;;;;;;;;;;;;;18.72;97.32;99248.88;4306342;33;35373;-95
2023/06/06 02:16:06;;;;;;;;;;;;;;;18.16;100.00;99245.22;4319367;33;33113;-92
2023/06/06 02:18:35;;;;;;;;;;;;;;;17.92;100.00;99252.38;4319242;33;33882;-94
2023/06/06 02:21:03;;;;;;;;;;;;;;;18.00;100.00;99256.41;4306176;33;35059;-95
2023/06/06 02:23:31;;;;;;;;;;;;;;;17.98;100.00;99250.34;4306160;33;34546;-95
2023/06/06 02:26:00;;;;;;;;;;;;;;;18.30;100.00;99248.09;4306094;33;34094;-94
2023/06/06 02:28:30;;;;;;;;;;;;;;;18.11;100.00;99247.19;4319221;33;33964;-95
2023/06/06 02:30:58;;;;;;;;;;;;;;;18.09;100.00;99254.28;4306209;33;35297;-94
2023/06/06 02:33:25;;;;;;;;;;;;;;;18.22;100.00;99259.91;4306079;33;34403;-94
2023/06/06 02:35:53;;;;;;;;;;;;;;;18.17;100.00;99268.84;4319098;33;33397;-94
2023/06/06 02:38:22;;;;;;;;;;;;;;;18.37;100.00;99270.63;4306056;33;34201;-95
2023/06/06 02:40:51;;;;;;;;;;;;;;;18.66;98.38;99275.53;4306236;33;35941;-95
2023/06/06 02:43:19;;;;;;;;;;;;;;;18.73;96.97;99277.81;4306310;33;34373;-95
2023/06/06 02:45:47;;;;;;;;;;;;;;;18.66;98.09;99281.66;4294142;33;33228;-95
2023/06/06 02:48:27;;;;;;;;;;;;;;;18.64;97.87;99280.88;4296472;33;34185;-94
2023/06/06 02:50:55;;;;;;;;;;;;;;;18.85;96.02;99278.22;4318918;33;35740;-96
2023/06/06 02:53:23;;;;;;;;;;;;;;;18.74;97.15;99279.53;4305763;33;35282;-95
2023/06/06 02:55:51;;;;;;;;;;;;;;;18.65;97.77;99279.06;4305667;33;34046;-95
2023/06/06 02:58:27;;;;;;;;;;;;;;;18.84;96.92;99269.44;4318839;33;33778;-95
2023/06/06 03:00:56;;;;;;;;;;;;;;;18.83;95.70;99278.28;4318842;33;35185;-96
2023/06/06 03:03:24;;;;;;;;;;;;;;;18.48;99.75;99277.22;4318753;33;34394;-94
2023/06/06 03:05:53;;;;;;;;;;;;;;;18.24;100.00;99274.72;4305609;33;33837;-92
2023/06/06 03:08:21;;;;;;;;;;;;;;;18.22;100.00;99276.56;4305684;33;34686;-95
2023/06/06 03:10:50;;;;;;;;;;;;;;;18.36;100.00;99275.97;4305507;33;35318;-95
2023/06/06 03:13:18;;;;;;;;;;;;;;;18.24;100.00;99279.97;4305646;33;34411;-95
2023/06/06 03:15:46;;;;;;;;;;;;;;;18.12;100.00;99283.13;4305693;33;33156;-93
2023/06/06 03:18:18;;;;;;;;;;;;;;;18.11;100.00;99286.72;4305747;33;34882;-95
2023/06/06 03:20:48;;;;;;;;;;;;;;;18.61;99.67;99299.47;4305716;33;35362;-93
2023/06/06 03:23:16;;;;;;;;;;;;;;;18.25;100.00;99296.62;4305806;33;34412;-95
2023/06/06 03:25:44;;;;;;;;;;;;;;;18.98;97.04;99299.63;4293686;33;33467;-95
2023/06/06 03:28:12;;;;;;;;;;;;;;;19.05;95.69;99299.25;4318751;33;33819;-91
2023/06/06 03:30:40;;;;;;;;;;;;;;;19.18;93.79;99299.53;4305298;33;35212;-92
2023/06/06 03:33:09;;;;;;;;;;;;;;;18.89;94.99;99303.53;4305312;33;34702;-92
2023/06/06 03:35:38;;;;;;;;;;;;;;;18.54;99.77;99298.88;4305535;33;33119;-92
2023/06/06 03:38:05;;;;;;;;;;;;;;;18.34;100.00;99293.63;4305611;33;33886;-93
2023/06/06 03:40:33;;;;;;;;;;;;;;;18.83;98.05;99290.59;4305206;33;36016;-92
2023/06/06 03:43:02;;;;;;;;;;;;;;;18.88;97.28;99286.84;4305576;33;34246;-92
2023/06/06 03:45:30;;;;;;;;;;;;;;;18.94;95.91;99276.00;4304651;33;34040;-90
2023/06/06 03:47:58;;;;;;;;;;;;;;;18.68;97.96;99273.69;4305311;33;34742;-90
2023/06/06 03:50:26;;;;;;;;;;;;;;;18.41;100.00;99278.41;4305018;33;36082;-92
2023/06/06 03:52:55;;;;;;;;;;;;;;;18.40;100.00;99268.78;4280162;33;33619;-90
2023/06/06 03:55:23;;;;;;;;;;;;;;;18.14;100.00;99260.22;4305044;33;34104;-90
2023/06/06 03:57:53;;;;;;;;;;;;;;;18.28;100.00;99259.63;4304974;33;34157;-92
2023/06/06 04:00:20;;;;;;;;;;;;;;;17.90;100.00;99260.34;4280414;33;36055;-92
2023/06/06 04:02:49;;;;;;;;;;;;;;;17.76;100.00;99258.25;4292388;33;34749;-92
2023/06/06 04:05:18;;;;;;;;;;;;;;;17.71;100.00;99270.75;4305022;33;33837;-92
2023/06/06 04:07:46;;;;;;;;;;;;;;;17.90;100.00;99265.62;4304993;33;34979;-91
2023/06/06 04:10:14;;;;;;;;;;;;;;;17.97;100.00;99271.50;4304849;33;35311;-90
2023/06/06 04:12:41;;;;;;;;;;;;;;;17.90;100.00;99265.62;4292094;33;35096;-90
2023/06/06 04:15:10;;;;;;;;;;;;;;;17.98;100.00;99268.78;4291840;33;33226;-91
2023/06/06 04:17:38;;;;;;;;;;;;;;;17.93;100.00;99273.41;4292058;33;33915;-90
2023/06/06 04:20:08;;;;;;;;;;;;;;;18.00;100.00;99261.69;4291679;33;34863;-92
2023/06/06 04:22:36;;;;;;;;;;;;;;;18.00;100.00;99271.38;4291954;33;33923;-92
2023/06/06 04:25:05;;;;;;;;;;;;;;;17.96;100.00;99270.59;4292253;33;33302;-92
2023/06/06 04:27:37;;;;;;;;;;;;;;;17.92;100.00;99271.66;4305018;33;34916;-93
2023/06/06 04:30:05;;;;;;;;;;;;;;;18.01;100.00;99267.78;4304998;33;35025;-91
2023/06/06 04:32:34;;;;;;;;;;;;;;;18.15;100.00;99269.84;4291960;33;34490;-92
2023/06/06 04:35:02;;;;;;;;;;;;;;;18.35;100.00;99264.56;4304902;33;33370;-91
2023/06/06 04:37:32;;;;;;;;;;;;;;;18.75;100.00;99260.13;4292038;33;34947;-91
2023/06/06 04:40:00;;;;;;;;;;;;;;;18.46;100.00;99269.37;4291957;33;34490;-93
2023/06/06 04:42:32;;;;;;;;;;;;;;;18.43;100.00;99271.28;4291836;33;34409;-92
2023/06/06 04:45:05;;;;;;;;;;;;;;;18.55;100.00;99278.66;4292354;33;34140;-91
2023/06/06 04:47:38;;;;;;;;;;;;;;;18.48;100.00;99266.66;4304969;33;35105;-92
2023/06/06 04:50:08;;;;;;;;;;;;;;;18.60;100.00;99268.75;4292227;33;35294;-91
2023/06/06 04:52:36;;;;;;;;;;;;;;;18.52;100.00;99268.22;4304850;33;34347;-91
2023/06/06 04:55:04;;;;;;;;;;;;;;;18.49;100.00;99271.00;4304563;33;32698;-93
2023/06/06 04:57:33;;;;;;;;;;;;;;;18.51;100.00;99267.38;4303144;33;34746;-92
2023/06/06 05:00:05;;;;;;;;;;;;;;;19.00;100.00;99274.00;4291098;33;34819;-92
2023/06/06 05:02:34;;;;;;;;;;;;;;;19.08;99.42;99277.16;4289106;33;35042;-92
2023/06/06 05:05:04;;;;;;;;;;;;;;;18.69;100.00;99280.69;4295896;33;33485;-91
2023/06/06 05:07:32;;;;;;;;;;;;;;;19.00;100.00;99280.12;4291634;33;34994;-90
2023/06/06 05:10:02;;;;;;;;;;;;;;;18.47;100.00;99286.88;4304490;33;35393;-92
2023/06/06 05:12:31;;;;;;;;;;;;;;;18.22;100.00;99276.56;4304428;33;35045;-92
2023/06/06 05:14:59;;;;;;;;;;;;;;;18.56;100.00;99290.91;4304158;33;33294;-91
2023/06/06 05:17:27;;;;;;;;;;;;;;;18.66;100.00;99284.28;4290773;33;34052;-92
2023/06/06 05:19:56;;;;;;;;;;;;;;;18.94;100.00;99291.00;4290986;33;34858;-91
2023/06/06 05:22:23;;;;;;;;;;;;;;;19.02;97.38;99293.25;4284855;33;35317;-92
2023/06/06 05:24:51;;;;;;;;;;;;;;;19.11;99.12;99288.44;4280913;33;34120;-92
2023/06/06 05:27:20;;;;;;;;;;;;;;;18.92;99.92;99292.84;4288960;33;33998;-92
2023/06/06 05:29:48;;;;;;;;;;;;;;;18.48;100.00;99288.59;4293088;33;35235;-92
2023/06/06 05:32:20;;;;;;;;;;;;;;;18.99;100.00;99283.72;4291521;33;33566;-93
2023/06/06 05:34:48;;;;;;;;;;;;;;;18.82;100.00;99291.56;4304440;33;33420;-92
2023/06/06 05:37:17;;;;;;;;;;;;;;;19.10;100.00;99291.13;4304574;33;33253;-92
2023/06/06 05:39:47;;;;;;;;;;;;;;;19.43;96.50;99293.97;4291666;33;35685;-91
2023/06/06 05:42:15;;;;;;;;;;;;;;;19.50;94.55;99292.75;4304409;33;34664;-93
2023/06/06 05:44:43;;;;;;;;;;;;;;;19.17;98.76;99297.00;4304156;33;34104;-92
2023/06/06 05:47:14;;;;;;;;;;;;;;;19.20;98.16;99296.81;4304381;33;34154;-92
2023/06/06 05:49:43;;;;;;;;;;;;;;;19.05;99.62;99298.41;4304384;33;34883;-91
2023/06/06 05:52:10;;;;;;;;;;;;;;;18.89;100.00;99298.25;4291282;33;34785;-92
2023/06/06 05:54:38;;;;;;;;;;;;;;;18.96;100.00;99293.56;4291328;33;33387;-92
2023/06/06 05:57:20;;;;;;;;;;;;;;;19.10;100.00;99301.69;4291216;33;34273;-90
2023/06/06 05:59:48;;;;;;;;;;;;;;;19.16;100.00;99306.69;4291003;33;35692;-91
2023/06/06 06:02:16;;;;;;;;;;;;;;;19.30;99.01;99298.97;4304423;33;34153;-92
2023/06/06 06:04:45;;;;;;;;;;;;;;;19.35;99.00;99298.75;4304650;33;33135;-91
2023/06/06 06:07:13;;;;;;;;;;;;;;;19.60;97.54;99301.06;4291519;33;32541;-92
2023/06/06 06:09:41;;;;;;;;;;;;;;;19.48;97.03;99307.81;4290939;33;35137;-92
2023/06/06 06:12:09;;;;;;;;;;;;;;;19.12;100.00;99308.59;4291326;33;34762;-90
2023/06/06 06:14:37;;;;;;;;;;;;;;;19.12;100.00;99311.25;4290906;33;33423;-92
2023/06/06 06:17:05;;;;;;;;;;;;;;;19.01;100.00;99308.25;4304352;33;34672;-91
2023/06/06 06:19:33;;;;;;;;;;;;;;;19.26;100.00;99307.13;4304204;33;35280;-92
2023/06/06 06:22:01;;;;;;;;;;;;;;;19.13;100.00;99312.97;4303983;33;34774;-92
2023/06/06 06:24:30;;;;;;;;;;;;;;;19.12;100.00;99316.53;4304069;33;33403;-92
2023/06/06 06:26:58;;;;;;;;;;;;;;;19.21;100.00;99309.09;4291083;33;34038;-91
2023/06/06 06:29:26;;;;;;;;;;;;;;;19.14;100.00;99319.94;4291094;33;34863;-91
2023/06/06 06:31:54;;;;;;;;;;;;;;;19.28;100.00;99321.09;4290799;33;35389;-91
2023/06/06 06:34:22;;;;;;;;;;;;;;;19.34;100.00;99315.50;4290991;33;33846;-91
2023/06/06 06:36:50;;;;;;;;;;;;;;;19.25;100.00;99327.38;4290871;33;34250;-90
2023/06/06 06:39:19;;;;;;;;;;;;;;;19.25;100.00;99327.38;4303868;33;35013;-92
2023/06/06 06:41:47;;;;;;;;;;;;;;;19.31;100.00;99326.25;4290975;33;35567;-91
2023/06/06 06:44:15;;;;;;;;;;;;;;;19.25;100.00;99330.03;4278960;33;32071;-92
2023/06/06 06:46:43;;;;;;;;;;;;;;;19.38;100.00;99332.09;4290807;33;34231;-92
2023/06/06 06:49:17;;;;;;;;;;;;;;;19.32;100.00;99333.22;4290669;33;34037;-92
2023/06/06 06:51:45;;;;;;;;;;;;;;;19.08;100.00;99338.72;4303667;33;34227;-91
2023/06/06 06:54:15;;;;;;;;;;;;;;;19.19;100.00;99338.22;4290802;33;32125;-90
2023/06/06 06:56:43;;;;;;;;;;;;;;;19.32;100.00;99333.22;4290939;33;34125;-91
2023/06/06 06:59:11;;;;;;;;;;;;;;;19.57;100.00;99337.34;4278644;33;35124;-92
2023/06/06 07:01:39;;;;;;;;;;;;;;;19.52;100.00;99334.94;4290735;33;34761;-92
2023/06/06 07:04:08;;;;;;;;;;;;;;;19.67;100.00;99339.47;4278611;33;33462;-91
2023/06/06 07:06:36;;;;;;;;;;;;;;;19.65;100.00;99338.69;4303481;33;35055;-92
2023/06/06 07:09:04;;;;;;;;;;;;;;;19.56;100.00;99335.63;4290580;33;34454;-91
2023/06/06 07:11:32;;;;;;;;;;;;;;;19.59;100.00;99336.34;4290540;33;34559;-92
2023/06/06 07:14:00;;;;;;;;;;;;;;;19.74;100.00;99341.84;4278629;33;32144;-93
2023/06/06 07:16:28;;;;;;;;;;;;;;;19.56;100.00;99344.41;4278946;33;34248;-92
2023/06/06 07:18:56;;;;;;;;;;;;;;;19.96;100.00;99339.00;4303418;33;35760;-92
2023/06/06 07:21:25;;;;;;;;;;;;;;;20.30;97.65;99347.91;4278869;33;34774;-91
2023/06/06 07:24:04;;;;;;;;;;;;;;;20.01;99.55;99347.56;4293457;33;33533;-92
2023/06/06 07:26:32;;;;;;;;;;;;;;;19.98;100.00;99348.56;4292054;33;34310;-92
2023/06/06 07:29:00;;;;;;;;;;;;;;;20.17;100.00;99343.25;4305105;33;35699;-91
2023/06/06 07:31:28;;;;;;;;;;;;;;;20.32;99.72;99344.25;4304858;33;34699;-91
2023/06/06 07:33:56;;;;;;;;;;;;;;;20.32;97.15;99340.75;4292147;33;34084;-92
2023/06/06 07:36:42;;;;;;;;;;;;;;;20.05;97.87;99339.41;4294318;33;34961;-92
2023/06/06 07:39:10;;;;;;;;;;;;;;;20.15;99.76;99347.72;4305338;33;34973;-92
2023/06/06 07:41:39;;;;;;;;;;;;;;;20.11;100.00;99343.53;4305337;33;34386;-93
2023/06/06 07:44:07;;;;;;;;;;;;;;;20.49;100.00;99343.38;4292023;33;34073;-91
2023/06/06 07:46:35;;;;;;;;;;;;;;;20.36;100.00;99339.66;4292182;33;33572;-92
2023/06/06 07:49:03;;;;;;;;;;;;;;;20.20;100.00;99337.78;4292277;33;35299;-91
2023/06/06 07:51:31;;;;;;;;;;;;;;;20.45;100.00;99339.16;4305068;33;34632;-91
2023/06/06 07:53:59;;;;;;;;;;;;;;;20.59;99.14;99341.94;4305126;33;32931;-92
2023/06/06 07:56:30;;;;;;;;;;;;;;;20.87;95.09;99337.06;4273474;33;1023526;-92
2023/06/06 07:58:57;;;;;;;;;;;;;;;20.72;96.12;99338.69;4304276;33;35971;-91
2023/06/06 08:01:27;;;;;;;;;;;;;;;20.50;96.88;99342.44;4292102;33;34593;-93
2023/06/06 08:03:55;;;;;;;;;;;;;;;21.12;93.02;99331.28;4304753;33;33399;-93
2023/06/06 08:06:23;;;;;;;;;;;;;;;21.07;92.92;99326.25;4292227;33;34933;-92
2023/06/06 08:08:51;;;;;;;;;;;;;;;21.07;92.41;99335.97;4292012;33;35103;-92
2023/06/06 08:11:19;;;;;;;;;;;;;;;21.36;93.28;99329.09;4291995;33;35249;-92
2023/06/06 08:13:47;;;;;;;;;;;;;;;21.08;91.24;99329.75;4292322;33;33079;-92
2023/06/06 08:16:15;;;;;;;;;;;;;;;21.62;90.68;99325.03;4292947;33;33874;-94
2023/06/06 08:18:43;;;;;;;;;;;;;;;21.90;88.08;99323.41;4304547;33;35843;-93
2023/06/06 08:21:12;;;;;;;;;;;;;;;21.83;88.76;99327.38;4291902;33;34642;-92
2023/06/06 08:23:40;;;;;;;;;;;;;;;21.49;92.67;99324.00;4290120;33;33074;-93
2023/06/06 08:26:08;;;;;;;;;;;;;;;22.33;91.04;99326.25;4291329;33;34556;-93
2023/06/06 08:28:36;;;;;;;;;;;;;;;22.49;88.07;99316.41;4292351;33;35018;-92
2023/06/06 08:31:04;;;;;;;;;;;;;;;22.58;86.94;99319.47;4290638;33;35324;-92
2023/06/06 08:33:32;;;;;;;;;;;;;;;22.20;88.28;99320.78;4290905;33;34625;-93
2023/06/06 08:36:00;;;;;;;;;;;;;;;22.39;89.57;99319.72;4291426;33;34082;-93
2023/06/06 08:38:32;;;;;;;;;;;;;;;21.65;92.93;99322.16;4280583;33;35139;-92
2023/06/06 08:41:07;;;;;;;;;;;;;;;21.64;93.31;99323.13;4304404;33;34715;-90
2023/06/06 08:43:38;;;;;;;;;;;;;;;21.76;93.35;99333.03;4304734;33;34021;-90
2023/06/06 08:46:07;;;;;;;;;;;;;;;22.11;88.40;99322.19;4279773;33;33895;-90
2023/06/06 08:48:35;;;;;;;;;;;;;;;22.31;87.66;99325.50;4304634;33;35010;-90
2023/06/06 08:51:04;;;;;;;;;;;;;;;22.22;88.77;99318.03;4304574;33;34592;-89
2023/06/06 08:53:34;;;;;;;;;;;;;;;22.19;87.58;99318.22;4304818;33;33142;-91
2023/06/06 08:56:04;;;;;;;;;;;;;;;22.15;83.56;99323.72;4304574;33;35996;-91
2023/06/06 08:58:34;;;;;;;;;;;;;;;22.38;82.61;99318.00;4291935;33;36122;-91
2023/06/06 09:01:03;;;;;;;;;;;;;;;22.10;89.12;99322.28;4304540;33;35458;-91
2023/06/06 09:03:34;;;;;;;;;;;;;;;22.48;84.99;99322.69;4291742;33;33266;-91
2023/06/06 09:06:04;;;;;;;;;;;;;;;22.67;80.94;99324.22;4291619;33;34926;-91
2023/06/06 09:08:33;;;;;;;;;;;;;;;22.86;80.02;99324.78;4291919;33;36070;-92
2023/06/06 09:11:01;;;;;;;;;;;;;;;22.96;81.00;99317.13;4304437;33;34710;-91
2023/06/06 09:13:30;;;;;;;;;;;;;;;23.05;77.88;99319.22;4304674;33;33417;-90
2023/06/06 09:16:00;;;;;;;;;;;;;;;22.96;80.29;99326.88;4291217;33;32925;-90
2023/06/06 09:18:29;;;;;;;;;;;;;;;23.37;78.02;99318.97;4304504;33;36084;-93
2023/06/06 09:21:00;;;;;;;;;;;;;;;23.36;77.06;99316.41;4304447;33;34420;-92
2023/06/06 09:23:32;;;;;;;;;;;;;;;23.65;75.78;99319.88;4291519;33;31742;-92
2023/06/06 09:26:02;;;;;;;;;;;;;;;23.11;76.48;99311.81;4291548;33;34984;-92
2023/06/06 09:28:37;;;;;;;;;;;;;;;22.89;75.53;99318.44;4291664;33;35743;-92
2023/06/06 09:31:27;;;;;;;;;;;;;;;23.09;80.33;99310.09;4291682;33;34723;-92
2023/06/06 09:33:57;;;;;;;;;;;;;;;23.44;75.16;99317.63;4304903;33;33380;-92
2023/06/06 09:36:28;;;;;;;;;;;;;;;23.74;72.54;99319.25;4304437;33;34207;-92
2023/06/06 09:39:11;;;;;;;;;;;;;;;24.02;70.82;99320.97;4292173;33;34968;-93
2023/06/06 09:41:46;;;;;;;;;;;;;;;23.85;72.59;99318.56;4290109;33;35147;-92
2023/06/06 09:44:19;;;;;;;;;;;;;;;23.52;74.53;99314.47;4289280;33;33423;-92
2023/06/06 09:46:50;;;;;;;;;;;;;;;23.42;76.40;99310.72;4304686;33;35559;-94
2023/06/06 09:49:20;;;;;;;;;;;;;;;23.30;75.74;99311.50;4304238;33;34867;-90
2023/06/06 09:51:51;;;;;;;;;;;;;;;23.43;75.17;99312.41;4304258;33;34638;-93
2023/06/06 09:54:22;;;;;;;;;;;;;;;23.74;76.10;99308.63;4291393;33;33147;-93
2023/06/06 09:56:51;;;;;;;;;;;;;;;23.77;75.35;99310.22;4291484;33;34098;-91
2023/06/06 09:59:27;;;;;;;;;;;;;;;23.81;74.82;99303.78;4291485;33;34999;-92
2023/06/06 10:01:57;;;;;;;;;;;;;;;23.66;74.23;99303.81;4291783;33;34271;-92
2023/06/06 10:04:26;;;;;;;;;;;;;;;23.32;79.79;99305.13;4291172;33;33022;-92
2023/06/06 10:06:57;;;;;;;;;;;;;;;23.17;81.62;99291.03;4304261;33;34083;-92
2023/06/06 10:09:26;;;;;;;;;;;;;;;23.58;79.45;99299.94;4291349;33;34947;-91
2023/06/06 10:11:56;;;;;;;;;;;;;;;23.10;81.63;99292.34;4291067;33;34089;-92
2023/06/06 10:14:26;;;;;;;;;;;;;;;23.21;76.34;99292.53;4291115;33;32149;-91
2023/06/06 10:16:56;;;;;;;;;;;;;;;23.05;77.14;99299.78;4291566;33;34322;-91
2023/06/06 10:19:27;;;;;;;;;;;;;;;22.81;75.36;99295.00;4279777;33;36095;-90
2023/06/06 10:21:56;;;;;;;;;;;;;;;22.50;79.21;99301.34;4304190;33;34245;-92
2023/06/06 10:24:26;;;;;;;;;;;;;;;22.30;83.31;99294.59;4304226;33;33387;-94
2023/06/06 10:26:55;;;;;;;;;;;;;;;22.42;81.66;99299.16;4288570;33;34052;-92
2023/06/06 10:29:30;;;;;;;;;;;;;;;22.09;86.84;99297.53;4289616;33;35082;-91
2023/06/06 10:32:20;;;;;;;;;;;;;;;22.41;81.39;99288.62;4303986;33;34619;-92
2023/06/06 10:34:52;;;;;;;;;;;;;;;22.25;79.08;99294.81;4303820;33;33438;-90
2023/06/06 10:37:25;;;;;;;;;;;;;;;22.49;75.63;99295.19;4303993;33;34059;-91
2023/06/06 10:40:04;;;;;;;;;;;;;;;22.43;79.37;99294.69;4303727;33;34978;-92
2023/06/06 10:42:39;;;;;;;;;;;;;;;22.34;81.46;99296.97;4291206;33;34978;-94
2023/06/06 10:45:09;;;;;;;;;;;;;;;22.77;77.80;99296.16;4291063;33;33235;-92
2023/06/06 10:47:44;;;;;;;;;;;;;;;22.51;76.07;99290.63;4290966;33;34083;-94
2023/06/06 10:50:17;;;;;;;;;;;;;;;22.82;79.17;99291.41;4291264;33;35771;-93
2023/06/06 10:52:45;;;;;;;;;;;;;;;22.57;82.81;99288.56;4303788;33;35448;-94
2023/06/06 10:55:16;;;;;;;;;;;;;;;22.72;81.52;99285.81;4304331;33;33022;-94
2023/06/06 10:57:48;;;;;;;;;;;;;;;22.51;81.29;99285.31;4306068;33;34166;-93
2023/06/06 11:00:17;;;;;;;;;;;;;;;21.96;83.48;99280.66;4281408;33;34915;-94
2023/06/06 11:02:46;;;;;;;;;;;;;;;22.46;81.11;99279.44;4306025;33;34288;-93
2023/06/06 11:05:15;;;;;;;;;;;;;;;22.40;81.09;99279.00;4305937;33;34047;-93
2023/06/06 11:07:46;;;;;;;;;;;;;;;21.65;87.12;99293.03;4281366;33;34159;-94
2023/06/06 11:10:14;;;;;;;;;;;;;;;22.23;85.64;99293.22;4280986;33;35005;-94
2023/06/06 11:12:42;;;;;;;;;;;;;;;22.57;84.87;99293.88;4293018;33;35453;-94
2023/06/06 11:15:09;;;;;;;;;;;;;;;23.30;83.61;99290.25;4292803;33;31993;-93
2023/06/06 11:17:49;;;;;;;;;;;;;;;23.87;79.35;99284.75;4293045;33;34119;-94
2023/06/06 11:20:18;;;;;;;;;;;;;;;24.66;76.05;99285.63;4293535;33;35958;-94
2023/06/06 11:22:51;;;;;;;;;;;;;;;25.23;72.71;99281.56;4293056;33;35418;-93
2023/06/06 11:25:23;;;;;;;;;;;;;;;25.57;67.77;99279.13;4293080;33;33408;-93
2023/06/06 11:27:52;;;;;;;;;;;;;;;25.16;67.28;99280.31;4293096;33;34661;-93
2023/06/06 11:30:20;;;;;;;;;;;;;;;24.49;70.39;99291.22;4292843;33;35284;-93
2023/06/06 11:32:47;;;;;;;;;;;;;;;23.67;69.35;99292.22;4305703;33;34652;-93
2023/06/06 11:35:19;;;;;;;;;;;;;;;22.99;73.34;99293.00;4305939;33;32955;-94
2023/06/06 11:37:47;;;;;;;;;;;;;;;22.13;76.00;99299.06;4281249;33;34226;-92
2023/06/06 11:40:15;;;;;;;;;;;;;;;21.51;76.24;99304.44;4292795;33;34185;-93
2023/06/06 11:42:43;;;;;;;;;;;;;;;20.97;79.58;99291.47;4292836;33;34725;-93
2023/06/06 11:45:15;;;;;;;;;;;;;;;21.18;80.49;99291.25;4292830;33;33397;-92
2023/06/06 11:47:44;;;;;;;;;;;;;;;21.08;81.28;99290.03;4292955;33;34262;-92
2023/06/06 11:50:12;;;;;;;;;;;;;;;21.19;81.09;99292.94;4292674;33;35087;-93
2023/06/06 11:52:44;;;;;;;;;;;;;;;21.18;80.88;99291.25;4292667;33;34729;-92
2023/06/06 11:55:12;;;;;;;;;;;;;;;21.01;81.40;99286.84;4292867;33;33517;-91
2023/06/06 11:57:40;;;;;;;;;;;;;;;20.72;83.50;99280.47;4292751;33;34166;-94
2023/06/06 12:00:15;;;;;;;;;;;;;;;21.04;79.10;99285.84;4305729;33;34706;-93
2023/06/06 12:02:47;;;;;;;;;;;;;;;20.90;80.42;99279.50;4293465;33;34735;-91
2023/06/06 12:05:20;;;;;;;;;;;;;;;21.11;79.43;99281.94;4292636;33;33825;-92
2023/06/06 12:07:49;;;;;;;;;;;;;;;19.95;86.93;99281.81;4305140;33;34637;-92
2023/06/06 12:10:24;;;;;;;;;;;;;;;20.25;86.10;99282.03;4292724;33;34806;-93
2023/06/06 12:12:52;;;;;;;;;;;;;;;20.53;85.40;99278.78;4292742;33;34801;-94
2023/06/06 12:15:20;;;;;;;;;;;;;;;20.68;86.09;99278.94;4305639;33;32997;-93
2023/06/06 12:17:47;;;;;;;;;;;;;;;20.76;84.91;99276.75;4292716;33;33744;-93
2023/06/06 12:20:23;;;;;;;;;;;;;;;20.89;83.63;99280.44;4305473;33;35087;-93
2023/06/06 12:22:51;;;;;;;;;;;;;;;20.70;86.40;99277.06;4292417;33;34345;-94
2023/06/06 12:25:23;;;;;;;;;;;;;;;20.61;88.20;99274.00;4305395;33;33976;-93
2023/06/06 12:27:53;;;;;;;;;;;;;;;20.71;88.15;99279.63;4305652;33;34198;-92
2023/06/06 12:30:31;;;;;;;;;;;;;;;20.68;86.47;99281.59;4305561;33;34825;-92
2023/06/06 12:33:01;;;;;;;;;;;;;;;20.83;85.95;99286.06;4305376;33;34745;-94
2023/06/06 12:35:30;;;;;;;;;;;;;;;20.97;88.62;99275.59;4292842;33;34094;-93
2023/06/06 12:38:01;;;;;;;;;;;;;;;21.43;82.66;99287.22;4292168;33;32946;-95
2023/06/06 12:40:36;;;;;;;;;;;;;;;21.58;80.36;99287.25;4305351;33;35262;-94
2023/06/06 12:43:07;;;;;;;;;;;;;;;21.28;82.18;99284.47;4293149;33;35445;-93
2023/06/06 12:45:35;;;;;;;;;;;;;;;21.75;80.08;99286.25;4280680;33;33061;-94
2023/06/06 12:48:03;;;;;;;;;;;;;;;21.75;82.96;99288.06;4305512;33;34528;-94
2023/06/06 12:50:31;;;;;;;;;;;;;;;21.62;81.65;99292.34;4292401;33;35190;-93
2023/06/06 12:53:00;;;;;;;;;;;;;;;21.50;82.69;99294.75;4305424;33;34502;-94
2023/06/06 12:55:28;;;;;;;;;;;;;;;21.67;80.18;99285.88;4292402;33;33075;-93